Mizpah, Montana
Current Conditions -  °F | °C
As of 4:53 PM on Wednesday 22 Oct 2014 (Local Time) from KMLS Reporting Station
Clear Clear  
Wind Chill: 63°   Ceiling: Unl
Heat Index: 63°   Visibility: 10mi
Dew Point: 27°   Wind: 12mph
Humidity: 26%   Direction: 280°W
Pressure: 29.91"   Gusts: NA
Location:  46.24°N, 105.27°W
Report Text: KMLS 222253Z AUTO 28010KT 10SM CLR 17/M03 A2991 RMK AO2 SLP126 T01721028
Loading
Personal Weather Stations






























Interactive Weather Map
Tropical Storm Tracking
New forecast layout! Learn more

10-Day Weather Forecast

Advertisements
Track Severe Weather on mobile